sensor_id;sensor_type;location;lat;lon;timestamp;P1;durP1;ratioP1;P2;durP2;ratioP2
47894;SDS011;33653;52.302;8.134;2023-09-08T00:01:57;4.85;;;3.60;;
47894;SDS011;33653;52.302;8.134;2023-09-08T00:04:25;6.18;;;3.85;;
47894;SDS011;33653;52.302;8.134;2023-09-08T00:07:02;6.90;;;3.75;;
47894;SDS011;33653;52.302;8.134;2023-09-08T00:12:39;4.60;;;3.65;;
47894;SDS011;33653;52.302;8.134;2023-09-08T00:15:09;5.10;;;3.10;;
47894;SDS011;33653;52.302;8.134;2023-09-08T00:17:38;5.60;;;3.55;;
47894;SDS011;33653;52.302;8.134;2023-09-08T00:20:06;5.13;;;3.10;;
47894;SDS011;33653;52.302;8.134;2023-09-08T00:22:41;3.95;;;3.17;;
47894;SDS011;33653;52.302;8.134;2023-09-08T00:25:09;3.17;;;2.80;;
47894;SDS011;33653;52.302;8.134;2023-09-08T00:27:38;3.83;;;2.67;;
47894;SDS011;33653;52.302;8.134;2023-09-08T00:30:18;2.88;;;2.58;;
47894;SDS011;33653;52.302;8.134;2023-09-08T00:32:47;6.53;;;3.53;;
47894;SDS011;33653;52.302;8.134;2023-09-08T00:35:21;4.95;;;3.35;;
47894;SDS011;33653;52.302;8.134;2023-09-08T00:38:01;4.25;;;3.03;;
47894;SDS011;33653;52.302;8.134;2023-09-08T00:40:32;5.45;;;3.58;;
47894;SDS011;33653;52.302;8.134;2023-09-08T00:43:01;5.82;;;4.05;;
47894;SDS011;33653;52.302;8.134;2023-09-08T00:45:30;5.05;;;3.67;;
47894;SDS011;33653;52.302;8.134;2023-09-08T00:47:58;6.80;;;4.18;;
47894;SDS011;33653;52.302;8.134;2023-09-08T00:50:27;4.85;;;3.58;;
47894;SDS011;33653;52.302;8.134;2023-09-08T00:52:56;5.60;;;3.75;;
47894;SDS011;33653;52.302;8.134;2023-09-08T00:55:32;4.75;;;3.20;;
47894;SDS011;33653;52.302;8.134;2023-09-08T00:58:02;5.88;;;3.80;;
47894;SDS011;33653;52.302;8.134;2023-09-08T01:00:31;4.72;;;3.13;;
47894;SDS011;33653;52.302;8.134;2023-09-08T01:03:05;4.70;;;3.38;;
47894;SDS011;33653;52.302;8.134;2023-09-08T01:05:39;5.28;;;3.65;;
47894;SDS011;33653;52.302;8.134;2023-09-08T01:08:08;4.38;;;3.30;;
47894;SDS011;33653;52.302;8.134;2023-09-08T01:10:37;4.45;;;3.30;;
47894;SDS011;33653;52.302;8.134;2023-09-08T01:13:06;5.57;;;3.88;;
47894;SDS011;33653;52.302;8.134;2023-09-08T01:15:34;6.50;;;3.78;;
47894;SDS011;33653;52.302;8.134;2023-09-08T01:18:06;6.47;;;4.38;;
47894;SDS011;33653;52.302;8.134;2023-09-08T01:27:32;4.00;;;3.50;;
47894;SDS011;33653;52.302;8.134;2023-09-08T01:30:05;4.40;;;3.63;;
47894;SDS011;33653;52.302;8.134;2023-09-08T01:32:38;6.22;;;3.92;;
47894;SDS011;33653;52.302;8.134;2023-09-08T01:35:08;4.47;;;3.72;;
47894;SDS011;33653;52.302;8.134;2023-09-08T01:37:50;6.72;;;3.60;;
47894;SDS011;33653;52.302;8.134;2023-09-08T01:40:23;4.72;;;3.33;;
47894;SDS011;33653;52.302;8.134;2023-09-08T01:43:00;7.57;;;4.00;;
47894;SDS011;33653;52.302;8.134;2023-09-08T01:45:29;6.18;;;3.75;;
47894;SDS011;33653;52.302;8.134;2023-09-08T01:47:59;3.88;;;3.38;;
47894;SDS011;33653;52.302;8.134;2023-09-08T01:50:28;6.00;;;3.38;;
47894;SDS011;33653;52.302;8.134;2023-09-08T01:52:56;3.88;;;3.05;;
47894;SDS011;33653;52.302;8.134;2023-09-08T01:55:30;5.22;;;3.80;;
47894;SDS011;33653;52.302;8.134;2023-09-08T01:57:58;3.85;;;2.95;;
47894;SDS011;33653;52.302;8.134;2023-09-08T02:00:31;5.90;;;2.92;;
47894;SDS011;33653;52.302;8.134;2023-09-08T02:03:02;4.22;;;3.05;;
47894;SDS011;33653;52.302;8.134;2023-09-08T02:05:32;4.65;;;3.47;;
47894;SDS011;33653;52.302;8.134;2023-09-08T02:08:03;4.18;;;3.30;;
47894;SDS011;33653;52.302;8.134;2023-09-08T02:10:32;3.88;;;3.17;;
47894;SDS011;33653;52.302;8.134;2023-09-08T02:13:01;5.88;;;2.60;;
47894;SDS011;33653;52.302;8.134;2023-09-08T02:15:30;5.75;;;4.10;;
47894;SDS011;33653;52.302;8.134;2023-09-08T02:18:08;5.13;;;3.85;;
47894;SDS011;33653;52.302;8.134;2023-09-08T02:23:33;4.78;;;3.47;;
47894;SDS011;33653;52.302;8.134;2023-09-08T02:26:11;6.10;;;3.40;;
47894;SDS011;33653;52.302;8.134;2023-09-08T02:28:42;4.85;;;3.55;;
47894;SDS011;33653;52.302;8.134;2023-09-08T02:31:12;6.47;;;3.53;;
47894;SDS011;33653;52.302;8.134;2023-09-08T02:33:40;5.47;;;3.50;;
47894;SDS011;33653;52.302;8.134;2023-09-08T02:36:14;4.38;;;3.47;;
47894;SDS011;33653;52.302;8.134;2023-09-08T02:38:45;6.55;;;4.30;;
47894;SDS011;33653;52.302;8.134;2023-09-08T02:44:22;7.20;;;3.20;;
47894;SDS011;33653;52.302;8.134;2023-09-08T02:47:00;6.13;;;3.97;;
47894;SDS011;33653;52.302;8.134;2023-09-08T02:49:36;5.07;;;3.70;;
47894;SDS011;33653;52.302;8.134;2023-09-08T02:52:04;4.28;;;3.08;;
47894;SDS011;33653;52.302;8.134;2023-09-08T02:54:34;5.13;;;3.70;;
47894;SDS011;33653;52.302;8.134;2023-09-08T02:57:02;4.82;;;3.55;;
47894;SDS011;33653;52.302;8.134;2023-09-08T02:59:40;5.25;;;3.50;;
47894;SDS011;33653;52.302;8.134;2023-09-08T03:02:08;5.65;;;3.33;;
47894;SDS011;33653;52.302;8.134;2023-09-08T03:04:40;5.00;;;3.50;;
47894;SDS011;33653;52.302;8.134;2023-09-08T03:07:15;6.55;;;4.03;;
47894;SDS011;33653;52.302;8.134;2023-09-08T03:09:44;6.05;;;3.70;;
47894;SDS011;33653;52.302;8.134;2023-09-08T03:12:13;4.30;;;3.03;;
47894;SDS011;33653;52.302;8.134;2023-09-08T03:14:41;5.45;;;3.15;;
47894;SDS011;33653;52.302;8.134;2023-09-08T03:20:14;6.03;;;4.13;;
47894;SDS011;33653;52.302;8.134;2023-09-08T03:22:42;3.75;;;3.10;;
47894;SDS011;33653;52.302;8.134;2023-09-08T03:25:14;4.28;;;3.53;;
47894;SDS011;33653;52.302;8.134;2023-09-08T03:27:42;5.30;;;3.90;;
47894;SDS011;33653;52.302;8.134;2023-09-08T03:42:02;5.82;;;3.60;;
47894;SDS011;33653;52.302;8.134;2023-09-08T03:44:34;4.65;;;3.10;;
47894;SDS011;33653;52.302;8.134;2023-09-08T03:58:35;7.65;;;3.65;;
47894;SDS011;33653;52.302;8.134;2023-09-08T04:01:05;3.83;;;3.15;;
47894;SDS011;33653;52.302;8.134;2023-09-08T04:03:34;5.85;;;3.95;;
47894;SDS011;33653;52.302;8.134;2023-09-08T04:06:02;4.57;;;3.53;;
47894;SDS011;33653;52.302;8.134;2023-09-08T04:08:34;4.57;;;3.75;;
47894;SDS011;33653;52.302;8.134;2023-09-08T04:14:07;6.38;;;4.18;;
47894;SDS011;33653;52.302;8.134;2023-09-08T04:16:37;5.47;;;3.60;;
47894;SDS011;33653;52.302;8.134;2023-09-08T04:19:23;6.43;;;3.50;;
47894;SDS011;33653;52.302;8.134;2023-09-08T04:21:57;5.60;;;3.58;;
47894;SDS011;33653;52.302;8.134;2023-09-08T04:34:16;5.47;;;3.17;;
47894;SDS011;33653;52.302;8.134;2023-09-08T04:36:45;5.20;;;3.85;;
47894;SDS011;33653;52.302;8.134;2023-09-08T04:39:13;8.13;;;3.83;;
47894;SDS011;33653;52.302;8.134;2023-09-08T04:41:43;5.70;;;3.40;;
47894;SDS011;33653;52.302;8.134;2023-09-08T04:44:11;7.78;;;3.85;;
47894;SDS011;33653;52.302;8.134;2023-09-08T04:46:39;5.50;;;3.50;;
47894;SDS011;33653;52.302;8.134;2023-09-08T04:49:08;6.45;;;4.57;;
47894;SDS011;33653;52.302;8.134;2023-09-08T04:51:36;4.70;;;3.90;;
47894;SDS011;33653;52.302;8.134;2023-09-08T04:54:05;5.53;;;3.50;;
47894;SDS011;33653;52.302;8.134;2023-09-08T04:56:33;5.60;;;3.63;;
47894;SDS011;33653;52.302;8.134;2023-09-08T04:59:23;6.35;;;3.53;;
47894;SDS011;33653;52.302;8.134;2023-09-08T05:01:53;4.70;;;3.00;;
47894;SDS011;33653;52.302;8.134;2023-09-08T05:04:29;4.10;;;3.15;;
47894;SDS011;33653;52.302;8.134;2023-09-08T05:07:00;5.30;;;3.63;;
47894;SDS011;33653;52.302;8.134;2023-09-08T05:13:21;6.07;;;3.78;;
47894;SDS011;33653;52.302;8.134;2023-09-08T05:15:59;5.40;;;3.97;;
47894;SDS011;33653;52.302;8.134;2023-09-08T05:18:49;4.95;;;3.58;;
47894;SDS011;33653;52.302;8.134;2023-09-08T05:21:21;5.05;;;3.53;;
47894;SDS011;33653;52.302;8.134;2023-09-08T05:23:51;6.88;;;3.90;;
47894;SDS011;33653;52.302;8.134;2023-09-08T05:26:26;5.32;;;3.58;;
47894;SDS011;33653;52.302;8.134;2023-09-08T05:28:57;5.43;;;3.58;;
47894;SDS011;33653;52.302;8.134;2023-09-08T05:31:26;6.45;;;4.15;;
47894;SDS011;33653;52.302;8.134;2023-09-08T05:33:55;5.30;;;3.55;;
47894;SDS011;33653;52.302;8.134;2023-09-08T05:36:30;13.98;;;4.57;;
47894;SDS011;33653;52.302;8.134;2023-09-08T05:39:09;7.38;;;3.78;;
47894;SDS011;33653;52.302;8.134;2023-09-08T05:41:42;5.85;;;4.28;;
47894;SDS011;33653;52.302;8.134;2023-09-08T05:44:14;6.50;;;4.10;;
47894;SDS011;33653;52.302;8.134;2023-09-08T05:46:43;5.30;;;3.88;;
47894;SDS011;33653;52.302;8.134;2023-09-08T05:49:12;5.82;;;3.63;;
47894;SDS011;33653;52.302;8.134;2023-09-08T05:51:42;5.78;;;3.97;;
47894;SDS011;33653;52.302;8.134;2023-09-08T05:54:14;4.80;;;3.40;;
47894;SDS011;33653;52.302;8.134;2023-09-08T06:00:07;5.10;;;3.55;;
47894;SDS011;33653;52.302;8.134;2023-09-08T06:05:40;6.43;;;4.13;;
47894;SDS011;33653;52.302;8.134;2023-09-08T06:08:15;5.57;;;3.70;;
47894;SDS011;33653;52.302;8.134;2023-09-08T06:10:44;7.40;;;3.95;;
47894;SDS011;33653;52.302;8.134;2023-09-08T06:13:13;5.80;;;4.07;;
47894;SDS011;33653;52.302;8.134;2023-09-08T06:15:42;9.35;;;4.10;;
47894;SDS011;33653;52.302;8.134;2023-09-08T06:18:14;4.70;;;3.83;;
47894;SDS011;33653;52.302;8.134;2023-09-08T06:20:48;6.18;;;3.92;;
47894;SDS011;33653;52.302;8.134;2023-09-08T06:23:23;4.93;;;3.63;;
47894;SDS011;33653;52.302;8.134;2023-09-08T06:26:00;6.28;;;4.22;;
47894;SDS011;33653;52.302;8.134;2023-09-08T06:28:37;9.90;;;4.00;;
47894;SDS011;33653;52.302;8.134;2023-09-08T06:31:18;6.40;;;4.30;;
47894;SDS011;33653;52.302;8.134;2023-09-08T06:33:46;7.72;;;4.20;;
47894;SDS011;33653;52.302;8.134;2023-09-08T06:36:23;5.28;;;3.78;;
47894;SDS011;33653;52.302;8.134;2023-09-08T06:38:52;5.57;;;4.07;;
47894;SDS011;33653;52.302;8.134;2023-09-08T06:41:21;6.05;;;3.85;;
47894;SDS011;33653;52.302;8.134;2023-09-08T06:47:00;4.20;;;3.40;;
47894;SDS011;33653;52.302;8.134;2023-09-08T06:49:29;6.18;;;3.65;;
47894;SDS011;33653;52.302;8.134;2023-09-08T06:51:58;3.85;;;3.05;;
47894;SDS011;33653;52.302;8.134;2023-09-08T06:54:26;5.55;;;3.83;;
47894;SDS011;33653;52.302;8.134;2023-09-08T06:56:57;5.80;;;4.10;;
47894;SDS011;33653;52.302;8.134;2023-09-08T06:59:29;5.40;;;4.05;;
47894;SDS011;33653;52.302;8.134;2023-09-08T07:02:00;5.10;;;3.53;;
47894;SDS011;33653;52.302;8.134;2023-09-08T07:04:30;6.55;;;3.75;;
47894;SDS011;33653;52.302;8.134;2023-09-08T07:06:59;8.20;;;3.55;;
47894;SDS011;33653;52.302;8.134;2023-09-08T07:09:37;9.65;;;3.55;;
47894;SDS011;33653;52.302;8.134;2023-09-08T07:12:26;6.30;;;3.25;;
47894;SDS011;33653;52.302;8.134;2023-09-08T07:14:54;11.68;;;3.38;;
47894;SDS011;33653;52.302;8.134;2023-09-08T07:25:32;4.63;;;3.78;;
47894;SDS011;33653;52.302;8.134;2023-09-08T07:28:02;3.95;;;3.15;;
47894;SDS011;33653;52.302;8.134;2023-09-08T07:30:32;4.78;;;3.75;;
47894;SDS011;33653;52.302;8.134;2023-09-08T07:33:01;4.90;;;3.38;;
47894;SDS011;33653;52.302;8.134;2023-09-08T07:38:09;9.82;;;4.32;;
47894;SDS011;33653;52.302;8.134;2023-09-08T07:40:37;8.63;;;3.40;;
47894;SDS011;33653;52.302;8.134;2023-09-08T07:43:06;5.72;;;3.90;;
47894;SDS011;33653;52.302;8.134;2023-09-08T07:45:35;5.90;;;3.20;;
47894;SDS011;33653;52.302;8.134;2023-09-08T07:48:04;5.30;;;3.42;;
47894;SDS011;33653;52.302;8.134;2023-09-08T07:50:41;5.63;;;3.83;;
47894;SDS011;33653;52.302;8.134;2023-09-08T07:53:10;5.20;;;3.50;;
47894;SDS011;33653;52.302;8.134;2023-09-08T08:01:31;5.35;;;3.20;;
47894;SDS011;33653;52.302;8.134;2023-09-08T08:04:02;4.72;;;3.38;;
47894;SDS011;33653;52.302;8.134;2023-09-08T08:06:31;9.07;;;3.47;;
47894;SDS011;33653;52.302;8.134;2023-09-08T08:08:59;4.82;;;3.38;;
47894;SDS011;33653;52.302;8.134;2023-09-08T08:11:29;4.50;;;3.13;;
47894;SDS011;33653;52.302;8.134;2023-09-08T08:14:01;5.18;;;3.90;;
47894;SDS011;33653;52.302;8.134;2023-09-08T08:16:35;4.63;;;3.45;;
47894;SDS011;33653;52.302;8.134;2023-09-08T08:19:06;9.95;;;4.15;;
47894;SDS011;33653;52.302;8.134;2023-09-08T08:30:42;4.20;;;3.15;;
47894;SDS011;33653;52.302;8.134;2023-09-08T08:36:16;6.47;;;3.47;;
47894;SDS011;33653;52.302;8.134;2023-09-08T08:41:44;6.47;;;3.70;;
47894;SDS011;33653;52.302;8.134;2023-09-08T08:44:12;7.10;;;4.38;;
47894;SDS011;33653;52.302;8.134;2023-09-08T08:46:47;4.28;;;3.42;;
47894;SDS011;33653;52.302;8.134;2023-09-08T08:49:30;5.15;;;3.70;;
47894;SDS011;33653;52.302;8.134;2023-09-08T08:52:14;9.88;;;4.00;;
47894;SDS011;33653;52.302;8.134;2023-09-08T08:54:45;7.15;;;4.00;;
47894;SDS011;33653;52.302;8.134;2023-09-08T08:57:14;7.25;;;3.90;;
47894;SDS011;33653;52.302;8.134;2023-09-08T09:02:55;6.50;;;3.58;;
47894;SDS011;33653;52.302;8.134;2023-09-08T09:05:41;5.10;;;3.10;;
47894;SDS011;33653;52.302;8.134;2023-09-08T09:12:08;4.45;;;3.58;;
47894;SDS011;33653;52.302;8.134;2023-09-08T09:15:33;5.38;;;3.85;;
47894;SDS011;33653;52.302;8.134;2023-09-08T09:18:11;5.68;;;3.78;;
47894;SDS011;33653;52.302;8.134;2023-09-08T09:20:41;4.93;;;3.58;;
47894;SDS011;33653;52.302;8.134;2023-09-08T09:26:08;11.02;;;3.97;;
47894;SDS011;33653;52.302;8.134;2023-09-08T09:32:02;4.10;;;2.97;;
47894;SDS011;33653;52.302;8.134;2023-09-08T09:38:15;5.50;;;3.30;;
47894;SDS011;33653;52.302;8.134;2023-09-08T09:43:45;5.00;;;3.05;;
47894;SDS011;33653;52.302;8.134;2023-09-08T09:49:42;4.90;;;3.30;;
47894;SDS011;33653;52.302;8.134;2023-09-08T09:52:26;4.80;;;2.95;;
47894;SDS011;33653;52.302;8.134;2023-09-08T09:55:21;4.10;;;3.42;;
47894;SDS011;33653;52.302;8.134;2023-09-08T09:58:00;6.18;;;3.58;;
47894;SDS011;33653;52.302;8.134;2023-09-08T10:03:18;4.60;;;3.15;;
47894;SDS011;33653;52.302;8.134;2023-09-08T10:08:42;5.20;;;3.38;;
47894;SDS011;33653;52.302;8.134;2023-09-08T10:11:13;5.72;;;3.17;;
47894;SDS011;33653;52.302;8.134;2023-09-08T10:21:46;4.13;;;3.00;;
47894;SDS011;33653;52.302;8.134;2023-09-08T10:27:44;3.63;;;2.63;;
47894;SDS011;33653;52.302;8.134;2023-09-08T10:34:45;5.30;;;3.10;;
47894;SDS011;33653;52.302;8.134;2023-09-08T10:53:31;4.43;;;2.63;;
47894;SDS011;33653;52.302;8.134;2023-09-08T10:56:15;3.67;;;3.00;;
47894;SDS011;33653;52.302;8.134;2023-09-08T11:03:12;4.10;;;2.42;;
47894;SDS011;33653;52.302;8.134;2023-09-08T11:05:42;5.07;;;3.08;;
47894;SDS011;33653;52.302;8.134;2023-09-08T11:08:17;4.00;;;2.58;;
47894;SDS011;33653;52.302;8.134;2023-09-08T11:10:46;6.53;;;2.45;;
47894;SDS011;33653;52.302;8.134;2023-09-08T11:13:39;4.03;;;2.80;;
47894;SDS011;33653;52.302;8.134;2023-09-08T11:16:11;5.10;;;3.13;;
47894;SDS011;33653;52.302;8.134;2023-09-08T11:18:42;5.05;;;2.90;;
47894;SDS011;33653;52.302;8.134;2023-09-08T11:21:13;4.40;;;2.78;;
47894;SDS011;33653;52.302;8.134;2023-09-08T11:27:08;3.65;;;2.15;;
47894;SDS011;33653;52.302;8.134;2023-09-08T11:29:41;2.58;;;2.15;;
47894;SDS011;33653;52.302;8.134;2023-09-08T11:32:13;3.60;;;2.30;;
47894;SDS011;33653;52.302;8.134;2023-09-08T11:35:06;4.32;;;2.40;;
47894;SDS011;33653;52.302;8.134;2023-09-08T11:37:42;3.50;;;2.65;;
47894;SDS011;33653;52.302;8.134;2023-09-08T11:40:17;3.67;;;2.35;;
47894;SDS011;33653;52.302;8.134;2023-09-08T11:49:32;2.90;;;2.25;;
47894;SDS011;33653;52.302;8.134;2023-09-08T11:55:04;3.75;;;2.20;;
47894;SDS011;33653;52.302;8.134;2023-09-08T11:57:39;3.40;;;2.40;;
47894;SDS011;33653;52.302;8.134;2023-09-08T12:00:12;3.67;;;2.30;;
47894;SDS011;33653;52.302;8.134;2023-09-08T12:03:52;4.07;;;2.10;;
47894;SDS011;33653;52.302;8.134;2023-09-08T12:12:44;2.55;;;1.95;;
47894;SDS011;33653;52.302;8.134;2023-09-08T12:15:59;2.75;;;1.80;;
47894;SDS011;33653;52.302;8.134;2023-09-08T12:18:37;4.07;;;2.10;;
47894;SDS011;33653;52.302;8.134;2023-09-08T12:21:07;2.63;;;2.13;;
47894;SDS011;33653;52.302;8.134;2023-09-08T12:29:58;2.47;;;2.10;;
47894;SDS011;33653;52.302;8.134;2023-09-08T12:32:29;2.78;;;2.03;;
47894;SDS011;33653;52.302;8.134;2023-09-08T12:35:19;2.42;;;1.90;;
47894;SDS011;33653;52.302;8.134;2023-09-08T12:38:04;2.90;;;2.30;;
47894;SDS011;33653;52.302;8.134;2023-09-08T12:40:47;4.00;;;2.10;;
47894;SDS011;33653;52.302;8.134;2023-09-08T12:43:22;4.80;;;2.25;;
47894;SDS011;33653;52.302;8.134;2023-09-08T12:45:56;3.63;;;2.20;;
47894;SDS011;33653;52.302;8.134;2023-09-08T12:48:24;4.38;;;2.38;;
47894;SDS011;33653;52.302;8.134;2023-09-08T12:51:08;2.58;;;1.92;;
47894;SDS011;33653;52.302;8.134;2023-09-08T12:53:37;2.35;;;2.08;;
47894;SDS011;33653;52.302;8.134;2023-09-08T12:56:08;2.30;;;1.83;;
47894;SDS011;33653;52.302;8.134;2023-09-08T12:58:39;3.20;;;1.92;;
47894;SDS011;33653;52.302;8.134;2023-09-08T13:04:09;2.80;;;2.17;;
47894;SDS011;33653;52.302;8.134;2023-09-08T13:06:40;3.88;;;2.45;;
47894;SDS011;33653;52.302;8.134;2023-09-08T13:09:12;3.70;;;2.00;;
47894;SDS011;33653;52.302;8.134;2023-09-08T13:11:47;4.00;;;2.25;;
47894;SDS011;33653;52.302;8.134;2023-09-08T13:14:16;5.75;;;2.35;;
47894;SDS011;33653;52.302;8.134;2023-09-08T13:16:44;2.58;;;1.80;;
47894;SDS011;33653;52.302;8.134;2023-09-08T13:19:13;2.80;;;1.83;;
47894;SDS011;33653;52.302;8.134;2023-09-08T13:24:43;3.58;;;2.22;;
47894;SDS011;33653;52.302;8.134;2023-09-08T13:27:11;2.85;;;1.98;;
47894;SDS011;33653;52.302;8.134;2023-09-08T13:30:09;3.25;;;2.92;;
47894;SDS011;33653;52.302;8.134;2023-09-08T13:32:43;5.22;;;3.80;;
47894;SDS011;33653;52.302;8.134;2023-09-08T13:35:12;3.40;;;2.00;;
47894;SDS011;33653;52.302;8.134;2023-09-08T13:40:11;2.97;;;2.00;;
47894;SDS011;33653;52.302;8.134;2023-09-08T13:42:40;4.03;;;2.25;;
47894;SDS011;33653;52.302;8.134;2023-09-08T13:45:14;5.07;;;2.10;;
47894;SDS011;33653;52.302;8.134;2023-09-08T13:47:42;3.72;;;2.20;;
47894;SDS011;33653;52.302;8.134;2023-09-08T13:53:33;3.13;;;2.20;;
47894;SDS011;33653;52.302;8.134;2023-09-08T13:56:13;2.80;;;1.70;;
47894;SDS011;33653;52.302;8.134;2023-09-08T13:58:42;2.60;;;1.75;;
47894;SDS011;33653;52.302;8.134;2023-09-08T14:01:29;3.05;;;1.70;;
47894;SDS011;33653;52.302;8.134;2023-09-08T14:07:00;1.90;;;1.70;;
47894;SDS011;33653;52.302;8.134;2023-09-08T14:09:35;3.58;;;1.98;;
47894;SDS011;33653;52.302;8.134;2023-09-08T14:15:02;5.00;;;3.88;;
47894;SDS011;33653;52.302;8.134;2023-09-08T14:17:34;2.97;;;2.55;;
47894;SDS011;33653;52.302;8.134;2023-09-08T14:20:03;1.80;;;1.60;;
47894;SDS011;33653;52.302;8.134;2023-09-08T14:22:33;3.47;;;1.83;;
47894;SDS011;33653;52.302;8.134;2023-09-08T14:25:02;2.58;;;1.75;;
47894;SDS011;33653;52.302;8.134;2023-09-08T14:27:38;4.05;;;1.85;;
47894;SDS011;33653;52.302;8.134;2023-09-08T14:30:06;1.85;;;1.67;;
47894;SDS011;33653;52.302;8.134;2023-09-08T14:35:09;3.17;;;2.05;;
47894;SDS011;33653;52.302;8.134;2023-09-08T14:37:46;5.15;;;2.00;;
47894;SDS011;33653;52.302;8.134;2023-09-08T14:40:15;3.13;;;1.90;;
47894;SDS011;33653;52.302;8.134;2023-09-08T14:42:52;2.40;;;1.85;;
47894;SDS011;33653;52.302;8.134;2023-09-08T14:48:17;3.97;;;1.73;;
47894;SDS011;33653;52.302;8.134;2023-09-08T14:50:49;5.03;;;2.13;;
47894;SDS011;33653;52.302;8.134;2023-09-08T14:53:17;2.13;;;1.67;;
47894;SDS011;33653;52.302;8.134;2023-09-08T14:55:47;3.42;;;2.05;;
47894;SDS011;33653;52.302;8.134;2023-09-08T14:58:21;2.97;;;1.85;;
47894;SDS011;33653;52.302;8.134;2023-09-08T15:03:44;1.98;;;1.60;;
47894;SDS011;33653;52.302;8.134;2023-09-08T15:22:32;2.35;;;1.60;;
47894;SDS011;33653;52.302;8.134;2023-09-08T15:28:48;1.85;;;1.48;;
47894;SDS011;33653;52.302;8.134;2023-09-08T15:44:50;2.13;;;1.70;;
47894;SDS011;33653;52.302;8.134;2023-09-08T15:50:16;2.70;;;1.98;;
47894;SDS011;33653;52.302;8.134;2023-09-08T15:57:38;3.28;;;2.50;;
47894;SDS011;33653;52.302;8.134;2023-09-08T16:05:57;2.30;;;1.70;;
47894;SDS011;33653;52.302;8.134;2023-09-08T16:26:46;3.13;;;1.90;;
47894;SDS011;33653;52.302;8.134;2023-09-08T16:29:17;2.75;;;1.73;;
47894;SDS011;33653;52.302;8.134;2023-09-08T16:31:46;2.78;;;2.15;;
47894;SDS011;33653;52.302;8.134;2023-09-08T16:34:14;7.40;;;1.80;;
47894;SDS011;33653;52.302;8.134;2023-09-08T16:36:42;3.38;;;2.03;;
47894;SDS011;33653;52.302;8.134;2023-09-08T16:39:10;2.50;;;1.93;;
47894;SDS011;33653;52.302;8.134;2023-09-08T16:41:41;2.00;;;1.73;;
47894;SDS011;33653;52.302;8.134;2023-09-08T16:44:09;3.35;;;1.95;;
47894;SDS011;33653;52.302;8.134;2023-09-08T16:49:38;3.42;;;1.65;;
47894;SDS011;33653;52.302;8.134;2023-09-08T16:52:09;3.50;;;2.20;;
47894;SDS011;33653;52.302;8.134;2023-09-08T16:57:32;3.63;;;2.15;;
47894;SDS011;33653;52.302;8.134;2023-09-08T17:00:01;3.10;;;2.45;;
47894;SDS011;33653;52.302;8.134;2023-09-08T17:02:36;2.72;;;2.10;;
47894;SDS011;33653;52.302;8.134;2023-09-08T17:05:05;2.63;;;1.98;;
47894;SDS011;33653;52.302;8.134;2023-09-08T17:07:35;2.33;;;2.00;;
47894;SDS011;33653;52.302;8.134;2023-09-08T17:10:05;2.35;;;1.90;;
47894;SDS011;33653;52.302;8.134;2023-09-08T17:12:39;3.55;;;2.10;;
47894;SDS011;33653;52.302;8.134;2023-09-08T17:15:14;2.05;;;1.80;;
47894;SDS011;33653;52.302;8.134;2023-09-08T17:17:50;2.47;;;2.10;;
47894;SDS011;33653;52.302;8.134;2023-09-08T17:20:32;4.15;;;2.15;;
47894;SDS011;33653;52.302;8.134;2023-09-08T17:23:02;3.30;;;2.40;;
47894;SDS011;33653;52.302;8.134;2023-09-08T17:25:36;3.83;;;2.63;;
47894;SDS011;33653;52.302;8.134;2023-09-08T17:28:04;3.55;;;2.08;;
47894;SDS011;33653;52.302;8.134;2023-09-08T17:30:32;5.70;;;2.23;;
47894;SDS011;33653;52.302;8.134;2023-09-08T17:35:56;3.33;;;2.42;;
47894;SDS011;33653;52.302;8.134;2023-09-08T17:38:24;2.45;;;2.05;;
47894;SDS011;33653;52.302;8.134;2023-09-08T17:43:58;3.53;;;2.28;;
47894;SDS011;33653;52.302;8.134;2023-09-08T17:46:35;4.50;;;2.38;;
47894;SDS011;33653;52.302;8.134;2023-09-08T17:49:04;3.90;;;2.70;;
47894;SDS011;33653;52.302;8.134;2023-09-08T17:51:32;4.13;;;2.80;;
47894;SDS011;33653;52.302;8.134;2023-09-08T17:54:00;4.85;;;2.25;;
47894;SDS011;33653;52.302;8.134;2023-09-08T17:56:29;3.28;;;2.47;;
47894;SDS011;33653;52.302;8.134;2023-09-08T17:58:57;3.42;;;2.60;;
47894;SDS011;33653;52.302;8.134;2023-09-08T18:01:26;3.38;;;2.53;;
47894;SDS011;33653;52.302;8.134;2023-09-08T18:03:54;5.55;;;2.67;;
47894;SDS011;33653;52.302;8.134;2023-09-08T18:06:23;5.35;;;3.15;;
47894;SDS011;33653;52.302;8.134;2023-09-08T18:08:54;5.13;;;3.30;;
47894;SDS011;33653;52.302;8.134;2023-09-08T18:11:26;3.80;;;2.90;;
47894;SDS011;33653;52.302;8.134;2023-09-08T18:14:01;5.68;;;3.10;;
47894;SDS011;33653;52.302;8.134;2023-09-08T18:16:29;4.45;;;3.35;;
47894;SDS011;33653;52.302;8.134;2023-09-08T18:19:01;4.60;;;3.35;;
47894;SDS011;33653;52.302;8.134;2023-09-08T18:21:29;5.00;;;3.30;;
47894;SDS011;33653;52.302;8.134;2023-09-08T18:24:16;5.22;;;3.28;;
47894;SDS011;33653;52.302;8.134;2023-09-08T18:26:47;4.95;;;3.38;;
47894;SDS011;33653;52.302;8.134;2023-09-08T18:29:19;5.38;;;3.30;;
47894;SDS011;33653;52.302;8.134;2023-09-08T18:31:47;9.35;;;3.45;;
47894;SDS011;33653;52.302;8.134;2023-09-08T18:34:28;5.68;;;3.00;;
47894;SDS011;33653;52.302;8.134;2023-09-08T18:37:05;7.25;;;3.80;;
47894;SDS011;33653;52.302;8.134;2023-09-08T18:39:33;8.48;;;3.63;;
47894;SDS011;33653;52.302;8.134;2023-09-08T18:42:05;8.05;;;3.20;;
47894;SDS011;33653;52.302;8.134;2023-09-08T18:44:33;10.50;;;3.50;;
47894;SDS011;33653;52.302;8.134;2023-09-08T18:47:06;3.95;;;3.22;;
47894;SDS011;33653;52.302;8.134;2023-09-08T18:49:36;6.72;;;3.72;;
47894;SDS011;33653;52.302;8.134;2023-09-08T18:52:04;8.10;;;4.90;;
47894;SDS011;33653;52.302;8.134;2023-09-08T18:54:32;11.88;;;4.47;;
47894;SDS011;33653;52.302;8.134;2023-09-08T18:57:01;8.13;;;4.40;;
47894;SDS011;33653;52.302;8.134;2023-09-08T19:06:17;5.72;;;3.78;;
47894;SDS011;33653;52.302;8.134;2023-09-08T19:08:46;5.90;;;3.88;;
47894;SDS011;33653;52.302;8.134;2023-09-08T19:11:16;5.80;;;3.60;;
47894;SDS011;33653;52.302;8.134;2023-09-08T19:14:01;6.95;;;3.75;;
47894;SDS011;33653;52.302;8.134;2023-09-08T19:16:31;4.50;;;3.65;;
47894;SDS011;33653;52.302;8.134;2023-09-08T19:21:52;6.63;;;4.50;;
47894;SDS011;33653;52.302;8.134;2023-09-08T19:24:25;9.38;;;3.65;;
47894;SDS011;33653;52.302;8.134;2023-09-08T19:26:58;6.22;;;4.00;;
47894;SDS011;33653;52.302;8.134;2023-09-08T19:29:39;7.85;;;3.92;;
47894;SDS011;33653;52.302;8.134;2023-09-08T19:32:09;7.15;;;3.80;;
47894;SDS011;33653;52.302;8.134;2023-09-08T19:34:38;7.30;;;3.67;;
47894;SDS011;33653;52.302;8.134;2023-09-08T19:37:07;5.75;;;3.65;;
47894;SDS011;33653;52.302;8.134;2023-09-08T19:39:40;7.60;;;3.88;;
47894;SDS011;33653;52.302;8.134;2023-09-08T19:42:10;4.85;;;3.22;;
47894;SDS011;33653;52.302;8.134;2023-09-08T19:50:44;7.85;;;4.53;;
47894;SDS011;33653;52.302;8.134;2023-09-08T19:53:12;4.47;;;3.60;;
47894;SDS011;33653;52.302;8.134;2023-09-08T19:55:44;6.03;;;4.05;;
47894;SDS011;33653;52.302;8.134;2023-09-08T19:58:13;11.35;;;4.00;;
47894;SDS011;33653;52.302;8.134;2023-09-08T20:00:42;4.40;;;3.40;;
47894;SDS011;33653;52.302;8.134;2023-09-08T20:03:10;5.53;;;3.60;;
47894;SDS011;33653;52.302;8.134;2023-09-08T20:05:42;4.85;;;3.47;;
47894;SDS011;33653;52.302;8.134;2023-09-08T20:08:11;4.85;;;3.35;;
47894;SDS011;33653;52.302;8.134;2023-09-08T20:10:40;5.32;;;3.15;;
47894;SDS011;33653;52.302;8.134;2023-09-08T20:13:08;6.57;;;3.83;;
47894;SDS011;33653;52.302;8.134;2023-09-08T20:15:36;5.10;;;3.65;;
47894;SDS011;33653;52.302;8.134;2023-09-08T20:18:05;4.47;;;3.03;;
47894;SDS011;33653;52.302;8.134;2023-09-08T20:20:34;5.22;;;3.28;;
47894;SDS011;33653;52.302;8.134;2023-09-08T20:28:54;6.00;;;3.75;;
47894;SDS011;33653;52.302;8.134;2023-09-08T20:31:23;5.22;;;3.60;;
47894;SDS011;33653;52.302;8.134;2023-09-08T20:33:57;8.02;;;3.65;;
47894;SDS011;33653;52.302;8.134;2023-09-08T20:38:59;4.97;;;3.05;;